createdAt,value
2019-02-12T00:02:18.389Z,84.90
2019-02-12T00:04:49.893Z,86.13
2019-02-12T00:07:21.325Z,87.15
2019-02-12T00:09:52.733Z,86.32
2019-02-12T00:12:24.197Z,86.89
2019-02-12T00:14:55.652Z,86.11
2019-02-12T00:17:27.113Z,86.96
2019-02-12T00:19:58.515Z,86.97
2019-02-12T00:22:29.955Z,87.43
2019-02-12T00:25:01.284Z,86.84
2019-02-12T00:27:33.821Z,86.72
2019-02-12T00:30:06.156Z,87.09
2019-02-12T00:32:40.643Z,86.40
2019-02-12T00:35:12.043Z,86.74
2019-02-12T00:37:43.483Z,86.15
2019-02-12T00:40:15.042Z,86.40
2019-02-12T00:42:46.494Z,86.14
2019-02-12T00:45:17.911Z,86.67
2019-02-12T00:47:49.355Z,86.49
2019-02-12T00:50:20.678Z,86.37
2019-02-12T00:52:52.133Z,86.62
2019-02-12T00:55:23.547Z,86.10
2019-02-12T00:57:54.924Z,85.79
2019-02-12T01:00:26.333Z,85.81
2019-02-12T01:02:57.779Z,85.73
2019-02-12T01:05:29.201Z,85.59
2019-02-12T01:08:00.735Z,85.68
2019-02-12T01:10:32.095Z,85.15
2019-02-12T01:13:03.529Z,84.67
2019-02-12T01:15:38.281Z,85.49
2019-02-12T01:18:09.623Z,85.71
2019-02-12T01:20:41.021Z,84.98
2019-02-12T01:23:12.475Z,85.90
2019-02-12T01:25:43.897Z,85.95
2019-02-12T01:28:15.350Z,85.23
2019-02-12T01:30:46.957Z,85.79
2019-02-12T01:33:18.322Z,86.14
2019-02-12T01:35:49.756Z,86.00
2019-02-12T01:38:21.126Z,85.25
2019-02-12T01:40:52.534Z,84.88
2019-02-12T01:43:23.962Z,85.33
2019-02-12T01:45:55.389Z,85.51
2019-02-12T01:48:26.865Z,85.52
2019-02-12T01:50:58.206Z,85.22
2019-02-12T01:53:29.590Z,84.94
2019-02-12T01:56:00.993Z,84.57
2019-02-12T01:58:32.449Z,85.50
2019-02-12T02:01:03.855Z,84.81
2019-02-12T02:03:36.279Z,84.95
2019-02-12T02:06:07.686Z,84.42
2019-02-12T02:08:39.087Z,85.26
2019-02-12T02:11:10.862Z,84.21
2019-02-12T02:13:42.325Z,84.80
2019-02-12T02:16:13.782Z,84.80
2019-02-12T02:18:45.229Z,84.07
2019-02-12T02:21:16.640Z,84.06
2019-02-12T02:23:48.103Z,84.03
2019-02-12T02:26:19.521Z,84.64
2019-02-12T02:28:50.964Z,84.54
2019-02-12T02:31:23.447Z,84.30
2019-02-12T02:33:54.824Z,84.48
2019-02-12T02:36:26.163Z,83.97
2019-02-12T02:38:57.617Z,83.70
2019-02-12T02:41:32.692Z,83.36
2019-02-12T02:44:04.129Z,82.60
2019-02-12T02:46:35.466Z,82.54
2019-02-12T02:49:06.760Z,82.36
2019-02-12T02:51:38.179Z,82.93
2019-02-12T02:54:09.634Z,83.44
2019-02-12T02:56:41.065Z,83.74
2019-02-12T02:59:12.496Z,83.76
2019-02-12T03:01:43.984Z,84.33
2019-02-12T03:04:16.412Z,84.29
2019-02-12T03:06:47.923Z,84.09
2019-02-12T03:09:19.398Z,84.16
2019-02-12T03:11:50.836Z,83.99
2019-02-12T03:14:22.293Z,83.56
2019-02-12T03:16:53.661Z,84.24
2019-02-12T03:19:25.124Z,84.54
2019-02-12T03:22:03.410Z,84.09
2019-02-12T03:24:29.606Z,84.22
2019-02-12T03:27:00.973Z,83.80
2019-02-12T03:29:34.586Z,84.24
2019-02-12T03:32:06.014Z,84.73
2019-02-12T03:34:37.522Z,84.45
2019-02-12T03:37:09.375Z,84.60
2019-02-12T03:39:40.749Z,84.47
2019-02-12T03:42:12.196Z,84.43
2019-02-12T03:44:43.640Z,83.65
2019-02-12T03:47:15.243Z,84.47
2019-02-12T03:49:46.668Z,84.48
2019-02-12T03:52:18.434Z,84.39
2019-02-12T03:54:50.355Z,83.75
2019-02-12T03:57:22.633Z,83.47
2019-02-12T03:59:54.094Z,83.57
2019-02-12T04:02:25.709Z,83.34
2019-02-12T04:04:57.166Z,83.04
2019-02-12T04:07:28.609Z,83.20
2019-02-12T04:09:59.986Z,82.99
2019-02-12T04:12:31.414Z,82.54
2019-02-12T04:15:02.891Z,82.69
2019-02-12T04:17:34.369Z,82.62
2019-02-12T04:20:05.956Z,82.74
2019-02-12T04:22:37.319Z,82.08
2019-02-12T04:25:08.776Z,81.25
2019-02-12T04:27:40.194Z,82.24
2019-02-12T04:30:11.927Z,81.92
2019-02-12T04:32:43.344Z,81.79
2019-02-12T04:35:14.857Z,82.09
2019-02-12T04:37:46.222Z,81.76
2019-02-12T04:40:17.689Z,82.13
2019-02-12T04:42:49.169Z,81.75
2019-02-12T04:45:20.984Z,81.74
2019-02-12T04:47:52.396Z,81.82
2019-02-12T04:50:23.822Z,81.52
2019-02-12T04:52:55.237Z,82.25
2019-02-12T04:55:26.693Z,81.21
2019-02-12T04:57:58.114Z,80.38
2019-02-12T05:00:29.557Z,81.01
2019-02-12T05:03:00.998Z,80.18
2019-02-12T05:05:34.518Z,80.37
2019-02-12T05:08:05.946Z,80.47
2019-02-12T05:10:42.618Z,79.96
2019-02-12T05:13:13.966Z,80.71
2019-02-12T05:15:45.406Z,80.64
2019-02-12T05:18:16.859Z,80.98
2019-02-12T05:20:48.231Z,80.30
2019-02-12T05:23:19.578Z,80.36
2019-02-12T05:25:51.022Z,81.01
2019-02-12T05:28:22.544Z,80.50
2019-02-12T05:30:54.012Z,80.34
2019-02-12T05:33:25.442Z,80.98
2019-02-12T05:35:57.428Z,80.89
2019-02-12T05:38:28.770Z,80.77
2019-02-12T05:41:00.223Z,80.74
2019-02-12T05:43:31.688Z,80.62
2019-02-12T05:46:04.284Z,80.73
2019-02-12T05:48:35.765Z,80.34
2019-02-12T05:51:07.256Z,80.78
2019-02-12T05:53:38.686Z,81.13
2019-02-12T05:56:10.164Z,81.06
2019-02-12T05:58:41.630Z,80.86
2019-02-12T06:01:13.495Z,80.49
2019-02-12T06:03:44.964Z,81.46
2019-02-12T06:06:17.151Z,81.80
2019-02-12T06:08:48.837Z,82.11
2019-02-12T06:11:20.277Z,81.34
2019-02-12T06:13:51.777Z,80.99
2019-02-12T06:16:23.180Z,80.98
2019-02-12T06:18:54.655Z,82.16
2019-02-12T06:21:26.016Z,82.16
2019-02-12T06:23:57.446Z,81.62
2019-02-12T06:26:28.913Z,81.96
2019-02-12T06:29:00.261Z,81.06
2019-02-12T06:31:31.745Z,81.41
2019-02-12T06:34:03.181Z,81.97
2019-02-12T06:36:34.624Z,81.45
2019-02-12T06:39:28.256Z,80.96
2019-02-12T06:41:59.731Z,80.21
2019-02-12T06:44:31.180Z,80.23
2019-02-12T06:47:02.672Z,79.60
2019-02-12T06:49:34.039Z,79.42
2019-02-12T06:52:05.709Z,79.78
2019-02-12T06:54:37.161Z,79.77
2019-02-12T06:57:09.104Z,78.55
2019-02-12T06:59:40.534Z,78.81
2019-02-12T07:03:06.033Z,78.77
2019-02-12T07:05:37.631Z,78.72
2019-02-12T07:08:46.146Z,77.51
2019-02-12T07:11:41.703Z,76.43
2019-02-12T07:14:52.565Z,78.01
2019-02-12T07:17:55.859Z,77.58
2019-02-12T07:21:27.967Z,77.92
2019-02-12T07:24:50.191Z,76.72
2019-02-12T07:28:20.876Z,76.79
2019-02-12T07:32:12.648Z,76.00
2019-02-12T07:34:52.930Z,76.52
2019-02-12T07:38:11.378Z,75.21
2019-02-12T07:41:33.945Z,75.09
2019-02-12T07:44:51.437Z,76.13
2019-02-12T07:47:59.842Z,75.09
2019-02-12T07:51:01.505Z,74.96
2019-02-12T07:54:35.708Z,74.75
2019-02-12T07:58:00.165Z,73.63
2019-02-12T08:01:19.365Z,73.53
2019-02-12T08:04:40.583Z,73.55
2019-02-12T08:08:18.180Z,71.42
2019-02-12T08:11:24.241Z,72.83
2019-02-12T08:14:59.963Z,71.69
2019-02-12T08:18:01.439Z,73.02
2019-02-12T08:21:34.707Z,72.58
2019-02-12T08:24:39.900Z,72.38
2019-02-12T08:27:44.523Z,71.62
2019-02-12T08:30:53.880Z,71.62
2019-02-12T08:34:24.642Z,70.82
2019-02-12T08:37:18.618Z,71.07
2019-02-12T08:40:48.144Z,71.85
2019-02-12T08:43:54.732Z,70.83
2019-02-12T08:47:10.505Z,71.65
2019-02-12T08:50:40.380Z,72.72
2019-02-12T08:54:08.004Z,73.08
2019-02-12T08:57:10.862Z,73.69
2019-02-12T09:00:22.443Z,73.02
2019-02-12T09:04:00.067Z,73.68
2019-02-12T09:07:00.039Z,74.26
2019-02-12T09:10:31.223Z,73.23
2019-02-12T09:13:39.280Z,71.89
2019-02-12T09:16:52.315Z,71.57
2019-02-12T09:20:11.096Z,71.61
2019-02-12T09:23:47.335Z,71.38
2019-02-12T09:27:36.775Z,69.60
2019-02-12T09:30:50.605Z,69.62
2019-02-12T09:34:42.495Z,69.39
2019-02-12T09:37:55.577Z,68.99
2019-02-12T09:41:28.828Z,69.08
2019-02-12T09:45:30.503Z,67.56
2019-02-12T09:48:44.261Z,68.12
2019-02-12T09:52:21.804Z,66.56
2019-02-12T09:56:14.421Z,66.54
2019-02-12T09:59:41.800Z,66.14
2019-02-12T10:03:09.735Z,68.00
2019-02-12T10:06:27.823Z,67.27
2019-02-12T10:10:04.773Z,67.50
2019-02-12T10:13:51.060Z,67.88
2019-02-12T10:17:34.758Z,67.06
2019-02-12T10:20:38.939Z,66.27
2019-02-12T10:24:19.231Z,66.88
2019-02-12T10:26:55.639Z,67.70
2019-02-12T10:29:50.835Z,65.73
2019-02-12T10:32:19.628Z,66.12
2019-02-12T10:34:51.089Z,66.44
2019-02-12T10:37:22.622Z,65.32
2019-02-12T10:39:54.070Z,64.27
2019-02-12T10:42:25.510Z,65.42
2019-02-12T10:44:56.950Z,65.82
2019-02-12T10:47:28.436Z,66.61
2019-02-12T10:49:59.895Z,64.11
2019-02-12T10:52:31.370Z,64.58
2019-02-12T10:55:02.958Z,64.06
2019-02-12T10:57:34.397Z,64.65
2019-02-12T11:00:11.490Z,65.83
2019-02-12T11:02:43.366Z,65.43
2019-02-12T11:05:14.960Z,63.83
2019-02-12T11:07:46.382Z,64.48
2019-02-12T11:10:18.081Z,63.99
2019-02-12T11:12:49.532Z,62.79
2019-02-12T11:15:21.090Z,61.54
2019-02-12T11:17:52.649Z,61.06
2019-02-12T11:20:24.122Z,61.60
2019-02-12T11:22:55.588Z,62.88
2019-02-12T11:25:27.087Z,62.84
2019-02-12T11:27:58.573Z,63.04
2019-02-12T11:30:30.031Z,63.44
2019-02-12T11:33:01.545Z,64.05
2019-02-12T11:35:33.013Z,64.94
2019-02-12T11:38:04.479Z,63.67
2019-02-12T11:40:35.864Z,63.08
2019-02-12T11:43:07.787Z,62.08
2019-02-12T11:45:39.236Z,61.85
2019-02-12T11:48:10.683Z,62.07
2019-02-12T11:50:42.165Z,61.05
2019-02-12T11:53:13.538Z,61.82
2019-02-12T11:55:45.050Z,62.37
2019-02-12T11:58:16.474Z,61.52
2019-02-12T12:01:01.984Z,60.61
2019-02-12T12:03:33.494Z,61.72
2019-02-12T12:06:04.940Z,60.64
2019-02-12T12:08:36.536Z,59.21
2019-02-12T12:11:08.005Z,59.62
2019-02-12T12:13:39.502Z,59.79
2019-02-12T12:16:11.276Z,59.47
2019-02-12T12:18:42.804Z,59.46
2019-02-12T12:21:17.297Z,59.15
2019-02-12T12:23:48.778Z,58.78
2019-02-12T12:26:20.278Z,59.32
2019-02-12T12:28:51.740Z,58.79
2019-02-12T12:31:23.077Z,59.34
2019-02-12T12:33:54.710Z,59.39
2019-02-12T12:36:26.307Z,59.16
2019-02-12T12:39:04.756Z,58.29
2019-02-12T12:41:38.010Z,58.55
2019-02-12T12:44:09.500Z,58.14
2019-02-12T12:46:40.902Z,58.29
2019-02-12T12:49:12.377Z,57.90
2019-02-12T12:51:43.852Z,58.51
2019-02-12T12:54:15.323Z,58.39
2019-02-12T12:56:46.891Z,57.17
2019-02-12T12:59:18.468Z,58.12
2019-02-12T13:01:49.904Z,57.75
2019-02-12T13:04:21.432Z,58.02
2019-02-12T13:06:52.970Z,57.72
2019-02-12T13:09:24.489Z,58.90
2019-02-12T13:11:55.872Z,57.48
2019-02-12T13:14:31.102Z,57.65
2019-02-12T13:17:02.769Z,57.99
2019-02-12T13:19:34.702Z,59.41
2019-02-12T13:22:06.197Z,59.05
2019-02-12T13:24:37.634Z,58.97
2019-02-12T13:27:09.152Z,59.55
2019-02-12T13:29:40.664Z,60.32
2019-02-12T13:32:12.090Z,59.16
2019-02-12T13:34:43.563Z,59.83
2019-02-12T13:37:15.034Z,60.23
2019-02-12T13:39:49.833Z,59.74
2019-02-12T13:42:21.284Z,58.84
2019-02-12T13:44:52.721Z,60.09
2019-02-12T13:47:24.223Z,58.99
2019-02-12T13:49:55.563Z,58.30
2019-02-12T13:52:27.030Z,58.65
2019-02-12T13:54:58.576Z,59.64
2019-02-12T13:57:30.061Z,61.00
2019-02-12T14:00:01.633Z,60.45
2019-02-12T14:02:34.718Z,60.74
2019-02-12T14:05:08.322Z,61.84
2019-02-12T14:07:40.196Z,61.34
2019-02-12T14:10:11.730Z,60.72
2019-02-12T14:12:43.431Z,62.00
2019-02-12T14:15:14.946Z,61.68
2019-02-12T14:17:47.317Z,62.53
2019-02-12T14:20:18.745Z,62.05
2019-02-12T14:22:50.230Z,62.89
2019-02-12T14:25:25.675Z,63.69
2019-02-12T14:27:55.068Z,64.35
2019-02-12T14:30:26.638Z,64.99
2019-02-12T14:32:58.128Z,64.41
2019-02-12T14:35:29.572Z,64.79
2019-02-12T14:38:01.037Z,64.84
2019-02-12T14:40:32.546Z,64.38
2019-02-12T14:43:04.303Z,63.79
2019-02-12T14:45:35.815Z,64.76
2019-02-12T14:48:07.275Z,65.14
2019-02-12T14:50:38.800Z,64.19
2019-02-12T14:53:10.358Z,63.74
2019-02-12T14:55:41.948Z,64.11
2019-02-12T14:58:13.390Z,64.53
2019-02-12T15:00:44.838Z,63.50
2019-02-12T15:03:16.472Z,62.70
2019-02-12T15:05:53.846Z,63.23
2019-02-12T15:08:26.828Z,63.22
2019-02-12T15:10:58.383Z,64.43
2019-02-12T15:13:29.802Z,63.26
2019-02-12T15:16:01.325Z,63.03
2019-02-12T15:18:32.869Z,64.05
2019-02-12T15:21:04.355Z,64.46
2019-02-12T15:23:35.823Z,65.12
2019-02-12T15:26:07.290Z,65.86
2019-02-12T15:28:38.722Z,65.09
2019-02-12T15:31:10.331Z,65.92
2019-02-12T15:33:42.052Z,65.91
2019-02-12T15:36:13.528Z,64.80
2019-02-12T15:38:45.028Z,65.30
2019-02-12T15:41:16.544Z,64.58
2019-02-12T15:43:47.978Z,65.04
2019-02-12T15:46:19.434Z,64.56
2019-02-12T15:48:50.966Z,65.29
2019-02-12T15:51:22.486Z,65.71
2019-02-12T15:53:53.916Z,65.96
2019-02-12T15:56:25.516Z,65.83
2019-02-12T15:58:56.994Z,65.92
2019-02-12T16:01:28.527Z,65.16
2019-02-12T16:04:00.260Z,66.03
2019-02-12T16:06:31.767Z,66.50
2019-02-12T16:09:04.095Z,66.37
2019-02-12T16:11:37.757Z,66.26
2019-02-12T16:14:12.565Z,66.84
2019-02-12T16:16:44.041Z,66.85
2019-02-12T16:19:15.501Z,66.90
2019-02-12T16:21:46.965Z,67.08
2019-02-12T16:24:18.386Z,68.17
2019-02-12T16:26:49.877Z,67.22
2019-02-12T16:29:21.366Z,67.28
2019-02-12T16:31:52.844Z,67.03
2019-02-12T16:34:24.786Z,66.87
2019-02-12T16:36:56.245Z,67.25
2019-02-12T16:39:27.639Z,67.17
2019-02-12T16:41:59.126Z,68.47
2019-02-12T16:44:30.715Z,68.02
2019-02-12T16:47:02.215Z,67.78
2019-02-12T16:49:33.647Z,67.83
2019-02-12T16:52:05.164Z,68.40
2019-02-12T16:54:36.738Z,68.20
2019-02-12T16:57:08.293Z,68.32
2019-02-12T16:59:39.825Z,67.96
2019-02-12T17:02:11.409Z,67.98
2019-02-12T17:04:42.925Z,67.92
2019-02-12T17:07:14.498Z,67.83
2019-02-12T17:09:52.113Z,68.09
2019-02-12T17:12:19.127Z,67.69
2019-02-12T17:14:50.545Z,67.62
2019-02-12T17:17:22.323Z,68.06
2019-02-12T17:19:53.774Z,68.57
2019-02-12T17:22:25.182Z,68.88
2019-02-12T17:24:56.674Z,69.58
2019-02-12T17:27:28.169Z,69.32
2019-02-12T17:29:59.722Z,69.52
2019-02-12T17:32:31.242Z,69.24
2019-02-12T17:35:02.790Z,69.31
2019-02-12T17:37:34.410Z,69.18
2019-02-12T17:40:06.817Z,69.74
2019-02-12T17:42:38.476Z,69.64
2019-02-12T17:45:13.931Z,69.76
2019-02-12T17:47:45.375Z,69.60
2019-02-12T17:50:17.160Z,69.92
2019-02-12T17:52:51.423Z,70.39
2019-02-12T17:55:22.951Z,69.79
2019-02-12T17:57:54.436Z,69.67
2019-02-12T18:00:28.588Z,70.24
2019-02-12T18:03:00.154Z,70.38
2019-02-12T18:05:31.568Z,69.81
2019-02-12T18:08:03.102Z,69.92
2019-02-12T18:10:34.563Z,69.61
2019-02-12T18:13:06.022Z,70.29
2019-02-12T18:15:38.520Z,70.08
2019-02-12T18:18:10.013Z,70.61
2019-02-12T18:20:44.268Z,71.38
2019-02-12T18:23:15.862Z,71.79
2019-02-12T18:25:49.697Z,71.90
2019-02-12T18:28:21.255Z,71.84
2019-02-12T18:30:52.792Z,71.82
2019-02-12T18:33:24.274Z,71.51
2019-02-12T18:35:55.692Z,70.72
2019-02-12T18:38:27.228Z,71.90
2019-02-12T18:40:58.649Z,70.76
2019-02-12T18:43:30.111Z,70.52
2019-02-12T18:46:01.559Z,71.23
2019-02-12T18:48:33.117Z,70.50
2019-02-12T18:51:04.538Z,71.29
2019-02-12T18:53:36.112Z,70.73
2019-02-12T18:56:07.546Z,71.17
2019-02-12T18:58:38.986Z,70.99
2019-02-12T19:01:10.388Z,71.27
2019-02-12T19:03:41.883Z,71.59
2019-02-12T19:06:13.385Z,71.69
2019-02-12T19:08:45.014Z,72.19
2019-02-12T19:11:16.452Z,72.52
2019-02-12T19:13:47.966Z,72.19
2019-02-12T19:16:19.658Z,72.17
2019-02-12T19:18:51.094Z,73.13
2019-02-12T19:21:23.624Z,72.40
2019-02-12T19:23:55.081Z,73.00
2019-02-12T19:26:26.499Z,73.10
2019-02-12T19:28:57.959Z,73.79
2019-02-12T19:31:29.396Z,74.24
2019-02-12T19:34:00.874Z,74.21
2019-02-12T19:36:32.372Z,73.97
2019-02-12T19:39:04.992Z,74.05
2019-02-12T19:41:37.834Z,73.90
2019-02-12T19:44:09.290Z,73.77
2019-02-12T19:46:40.722Z,74.43
2019-02-12T19:49:12.300Z,74.87
2019-02-12T19:51:43.774Z,75.20
2019-02-12T19:54:15.212Z,75.22
2019-02-12T19:56:46.660Z,75.80
2019-02-12T19:59:18.116Z,75.30
2019-02-12T20:01:49.537Z,75.58
2019-02-12T20:04:20.999Z,76.07
2019-02-12T20:06:52.406Z,76.29
2019-02-12T20:09:24.024Z,77.11
2019-02-12T20:11:55.482Z,76.38
2019-02-12T20:14:26.923Z,76.76
2019-02-12T20:16:58.374Z,77.54
2019-02-12T20:19:29.838Z,77.34
2019-02-12T20:22:01.210Z,76.81
2019-02-12T20:24:32.679Z,77.00
2019-02-12T20:27:06.656Z,77.25
2019-02-12T20:29:38.680Z,76.97
2019-02-12T20:32:10.161Z,76.27
2019-02-12T20:34:41.624Z,76.49
2019-02-12T20:37:13.086Z,76.05
2019-02-12T20:39:44.561Z,76.50
2019-02-12T20:42:16.004Z,76.62
2019-02-12T20:44:48.556Z,76.60
2019-02-12T20:47:20.063Z,77.23
2019-02-12T20:49:51.531Z,77.38
2019-02-12T20:52:22.928Z,77.40
2019-02-12T20:54:54.594Z,77.96
2019-02-12T20:57:26.022Z,78.73
2019-02-12T20:59:57.500Z,79.32
2019-02-12T21:02:28.912Z,78.95
2019-02-12T21:05:00.332Z,78.34
2019-02-12T21:07:31.754Z,77.89
2019-02-12T21:10:03.214Z,78.45
2019-02-12T21:12:34.709Z,77.34
2019-02-12T21:15:08.075Z,78.15
2019-02-12T21:17:39.527Z,77.83
2019-02-12T21:20:11.136Z,78.22
2019-02-12T21:22:42.564Z,79.83
2019-02-12T21:25:14.389Z,79.64
2019-02-12T21:27:45.911Z,80.19
2019-02-12T21:30:19.978Z,80.49
2019-02-12T21:32:51.547Z,80.96
2019-02-12T21:35:23.127Z,80.03
2019-02-12T21:37:54.559Z,79.36
2019-02-12T21:40:26.146Z,78.78
2019-02-12T21:42:57.558Z,79.90
2019-02-12T21:45:42.899Z,81.07
2019-02-12T21:48:14.248Z,81.10
2019-02-12T21:50:45.725Z,81.37
2019-02-12T21:53:17.174Z,80.32
2019-02-12T21:55:48.652Z,81.50
2019-02-12T21:58:20.126Z,80.64
2019-02-12T22:00:51.625Z,81.39
2019-02-12T22:03:23.071Z,80.74
2019-02-12T22:05:54.527Z,80.75
2019-02-12T22:08:25.927Z,80.22
2019-02-12T22:10:57.482Z,81.17
2019-02-12T22:13:28.901Z,81.15
2019-02-12T22:16:00.455Z,79.59
2019-02-12T22:18:32.026Z,80.78
2019-02-12T22:21:03.525Z,81.53
2019-02-12T22:23:34.972Z,81.65
2019-02-12T22:26:08.368Z,81.40
2019-02-12T22:28:39.843Z,81.38
2019-02-12T22:31:11.300Z,81.33
2019-02-12T22:33:42.742Z,80.96
2019-02-12T22:36:14.216Z,80.55
2019-02-12T22:38:45.685Z,79.82
2019-02-12T22:41:17.171Z,79.49
2019-02-12T22:43:48.650Z,79.89
2019-02-12T22:46:20.123Z,79.17
2019-02-12T22:48:51.559Z,78.86
2019-02-12T22:51:22.956Z,78.88
2019-02-12T22:53:54.360Z,78.70
2019-02-12T22:56:25.791Z,78.92
2019-02-12T22:58:57.276Z,79.43
2019-02-12T23:01:39.226Z,79.46
2019-02-12T23:04:10.799Z,80.14
2019-02-12T23:06:43.352Z,80.70
2019-02-12T23:09:18.950Z,80.23
2019-02-12T23:11:50.525Z,81.84
2019-02-12T23:14:23.602Z,81.34
2019-02-12T23:16:54.975Z,81.83
2019-02-12T23:19:26.472Z,82.71
2019-02-12T23:21:58.039Z,82.72
2019-02-12T23:24:29.463Z,83.22
2019-02-12T23:27:00.941Z,82.59
2019-02-12T23:29:33.080Z,82.44
2019-02-12T23:32:04.627Z,82.35
2019-02-12T23:34:36.279Z,81.69
2019-02-12T23:37:07.789Z,82.38
2019-02-12T23:39:39.161Z,83.13
2019-02-12T23:42:10.711Z,82.88
2019-02-12T23:44:42.157Z,82.42
2019-02-12T23:47:13.625Z,82.34
2019-02-12T23:49:45.079Z,82.31
2019-02-12T23:52:16.625Z,82.24
2019-02-12T23:54:47.989Z,81.94
2019-02-12T23:57:19.375Z,82.92
2019-02-12T23:59:50.830Z,82.69
